Time;durP1;ratioP1;P1;durP2;ratioP2;P2;SDS_P1;SDS_P2;PMS_P1;PMS_P2;Temp;Humidity;BMP_temperature;BMP_pressure;BME280_temperature;BME280_humidity;BME280_pressure;Samples;Min_cycle;Max_cycle;Signal;HPM_P1;HPM_P2
2023/01/31 00:01:28;;;;;;;;;;;;;;;-0.94;66.29;94139.13;4146399;28;20379;-61
2023/01/31 00:03:29;;;;;;;;;;;;;;;-0.93;66.29;94158.75;4148246;28;19928;-61
2023/01/31 00:05:30;;;;;;;;;;;;;;;-1.01;66.66;94166.16;4145789;28;19925;-61
2023/01/31 00:07:32;;;;;;;;;;;;;;;-1.13;66.79;94168.63;4145388;28;19921;-62
2023/01/31 00:09:33;;;;;;;;;;;;;;;-1.15;67.59;94164.50;4148000;28;19921;-62
2023/01/31 00:11:35;;;;;;;;;;;;;;;-0.95;67.46;94163.97;4134315;28;19922;-62
2023/01/31 00:13:37;;;;;;;;;;;;;;;-0.83;67.25;94155.44;4146652;28;19931;-63
2023/01/31 00:15:39;;;;;;;;;;;;;;;-0.68;67.07;94153.59;4139356;28;19925;-62
2023/01/31 00:17:41;;;;;;;;;;;;;;;-0.67;66.31;94150.09;4144125;28;20585;-59
2023/01/31 00:19:42;;;;;;;;;;;;;;;-0.69;66.27;94154.53;4147845;28;20614;-64
2023/01/31 00:21:44;;;;;;;;;;;;;;;-0.70;66.57;94159.78;4147276;28;20012;-65
2023/01/31 00:23:46;;;;;;;;;;;;;;;-0.68;66.83;94152.78;4147908;28;20383;-61
2023/01/31 00:25:47;;;;;;;;;;;;;;;-0.59;66.47;94149.56;4147851;28;20273;-61
2023/01/31 00:27:49;;;;;;;;;;;;;;;-0.60;66.26;94147.09;4146124;28;19965;-62
2023/01/31 00:29:50;;;;;;;;;;;;;;;-0.52;66.43;94152.53;4147423;28;19929;-62
2023/01/31 00:31:52;;;;;;;;;;;;;;;-0.46;66.09;94147.78;4147760;28;20268;-61
2023/01/31 00:33:53;;;;;;;;;;;;;;;-0.35;65.97;94148.81;4147311;28;20016;-62
2023/01/31 00:35:55;;;;;;;;;;;;;;;-0.35;65.48;94153.94;4147288;28;19921;-63
2023/01/31 00:37:56;;;;;;;;;;;;;;;-0.60;65.42;94154.81;4147642;28;20461;-62
2023/01/31 00:39:58;;;;;;;;;;;;;;;-0.72;66.40;94156.47;4147609;28;19922;-62
2023/01/31 00:41:59;;;;;;;;;;;;;;;-0.68;66.83;94152.78;4145660;28;20438;-62
2023/01/31 00:44:01;;;;;;;;;;;;;;;-0.72;66.54;94162.44;4146916;28;19929;-61
2023/01/31 00:46:03;;;;;;;;;;;;;;;-0.79;67.02;94160.41;4147264;28;19933;-63
2023/01/31 00:48:04;;;;;;;;;;;;;;;-0.72;67.28;94161.63;4147532;28;19921;-62
2023/01/31 00:50:06;;;;;;;;;;;;;;;-0.67;67.23;94150.09;4146607;28;19921;-60
2023/01/31 00:52:07;;;;;;;;;;;;;;;-0.60;67.36;94153.09;4146496;28;19921;-61
2023/01/31 00:54:09;;;;;;;;;;;;;;;-0.50;66.43;94145.53;4146793;28;20008;-61
2023/01/31 00:56:11;;;;;;;;;;;;;;;-0.40;66.34;94146.56;4147189;28;19944;-62
2023/01/31 00:58:13;;;;;;;;;;;;;;;-0.26;66.32;94143.84;4144811;28;19921;-63
2023/01/31 01:00:15;;;;;;;;;;;;;;;-0.42;66.37;94138.94;4147054;28;19925;-60
2023/01/31 01:02:16;;;;;;;;;;;;;;;-0.44;66.66;94135.63;4135038;28;19922;-63
2023/01/31 01:04:18;;;;;;;;;;;;;;;-0.46;66.53;94154.69;4131463;28;20312;-60
2023/01/31 01:06:20;;;;;;;;;;;;;;;-0.56;67.32;94164.81;4131045;28;20399;-61
2023/01/31 01:08:21;;;;;;;;;;;;;;;-0.65;67.62;94173.13;4138942;28;20461;-60
2023/01/31 01:10:23;;;;;;;;;;;;;;;-0.68;68.10;94165.63;4139918;28;19944;-64
2023/01/31 01:12:24;;;;;;;;;;;;;;;-0.56;67.85;94171.69;4128063;28;19926;-61
2023/01/31 01:14:26;;;;;;;;;;;;;;;-0.46;67.70;94162.41;4142185;28;20495;-61
2023/01/31 01:18:53;;;;;;;;;;;;;;;-0.37;64.31;94176.38;4143692;28;19929;-60
2023/01/31 01:20:55;;;;;;;;;;;;;;;-0.33;65.08;94159.81;4141667;28;20470;-62
2023/01/31 01:22:58;;;;;;;;;;;;;;;-0.31;64.90;94166.50;4146227;28;19921;-62
2023/01/31 01:24:59;;;;;;;;;;;;;;;-0.35;65.25;94148.81;4146854;28;19921;-61
2023/01/31 01:27:01;;;;;;;;;;;;;;;-0.18;63.74;94151.00;4145769;28;19921;-62
2023/01/31 01:29:02;;;;;;;;;;;;;;;-0.04;62.42;94144.91;4146126;28;20376;-61
2023/01/31 01:31:07;;;;;;;;;;;;;;;0.07;59.38;94132.09;4143191;28;19921;-63
2023/01/31 01:33:09;;;;;;;;;;;;;;;0.20;57.46;94139.75;4146414;28;19928;-63
2023/01/31 01:35:10;;;;;;;;;;;;;;;0.31;56.79;94132.06;4146703;28;19948;-60
2023/01/31 01:37:18;;;;;;;;;;;;;;;0.49;55.14;94126.50;4136459;28;19925;-61
2023/01/31 01:39:20;;;;;;;;;;;;;;;0.65;53.76;94132.19;4144543;28;19921;-61
2023/01/31 01:41:22;;;;;;;;;;;;;;;0.78;51.32;94129.53;4146380;28;20008;-63
2023/01/31 01:43:38;;;;;;;;;;;;;;;0.88;51.17;94130.47;4131591;28;19992;-62
2023/01/31 01:45:39;;;;;;;;;;;;;;;0.99;51.32;94127.91;4130714;28;20338;-63
2023/01/31 01:47:50;;;;;;;;;;;;;;;1.03;50.98;94133.66;4136546;28;19921;-63
2023/01/31 01:50:15;;;;;;;;;;;;;;;1.06;50.58;94136.03;4146776;28;19979;-61
2023/01/31 01:52:17;;;;;;;;;;;;;;;1.14;51.12;94138.84;4129263;28;19937;-61
2023/01/31 01:54:20;;;;;;;;;;;;;;;1.20;50.66;94148.69;4130689;28;19921;-61
2023/01/31 01:56:27;;;;;;;;;;;;;;;1.22;50.63;94128.75;4139333;28;19928;-62
2023/01/31 01:58:38;;;;;;;;;;;;;;;1.18;51.20;94150.59;4132100;28;20555;-61
2023/01/31 02:00:40;;;;;;;;;;;;;;;1.16;51.26;94136.97;4140763;28;19961;-62
2023/01/31 02:02:42;;;;;;;;;;;;;;;1.21;51.17;94137.44;4121382;28;19954;-61
2023/01/31 02:04:43;;;;;;;;;;;;;;;1.21;50.63;94131.47;4145143;28;20375;-62
2023/01/31 02:06:45;;;;;;;;;;;;;;;1.23;50.87;94125.25;4138927;28;19922;-60
2023/01/31 02:08:46;;;;;;;;;;;;;;;1.24;50.48;94136.38;4138764;28;19968;-61
2023/01/31 02:10:57;;;;;;;;;;;;;;;1.26;50.21;94131.09;4128227;28;19922;-60
2023/01/31 02:12:58;;;;;;;;;;;;;;;1.28;50.63;94147.28;4144058;28;20236;-61
2023/01/31 02:15:00;;;;;;;;;;;;;;;1.23;50.15;94150.22;4131457;28;19932;-62
2023/01/31 02:17:01;;;;;;;;;;;;;;;1.20;50.31;94151.25;4149260;28;19928;-61
2023/01/31 02:19:03;;;;;;;;;;;;;;;1.21;51.27;94147.75;4146773;28;19930;-61
2023/01/31 02:21:27;;;;;;;;;;;;;;;1.16;51.58;94144.72;4139722;28;20016;-61
2023/01/31 02:23:47;;;;;;;;;;;;;;;1.07;50.57;94153.13;4140565;28;19922;-61
2023/01/31 02:25:55;;;;;;;;;;;;;;;1.17;50.99;94150.69;4138979;28;20449;-62
2023/01/31 02:28:15;;;;;;;;;;;;;;;1.14;50.40;94149.16;4148695;28;19968;-61
2023/01/31 02:30:23;;;;;;;;;;;;;;;1.10;50.12;94142.59;4137374;28;19968;-62
2023/01/31 02:32:37;;;;;;;;;;;;;;;1.14;50.13;94141.44;4133055;28;19930;-61
2023/01/31 02:34:50;;;;;;;;;;;;;;;1.11;49.93;94141.63;4133644;28;19925;-62
2023/01/31 02:37:00;;;;;;;;;;;;;;;1.13;49.85;94150.09;4132128;28;19925;-62
2023/01/31 02:39:34;;;;;;;;;;;;;;;1.18;50.20;94148.00;4137290;28;19925;-60
2023/01/31 02:41:36;;;;;;;;;;;;;;;1.09;50.50;94160.75;4115248;28;20531;-61
2023/01/31 02:44:57;;;;;;;;;;;;;;;1.06;50.69;94150.69;4146973;28;19948;-62
2023/01/31 02:46:02;;;;;;;;;;;;;;;1.00;51.78;94152.75;4145171;28;19921;-62
2023/01/31 02:48:08;;;;;;;;;;;;;;;0.94;52.17;94147.25;4145460;28;19928;-60
2023/01/31 02:50:13;;;;;;;;;;;;;;;0.96;52.90;94160.84;4148157;28;20024;-62
2023/01/31 02:52:15;;;;;;;;;;;;;;;0.98;53.45;94161.56;4147809;28;19921;-63
2023/01/31 02:54:17;;;;;;;;;;;;;;;0.98;52.88;94172.69;4143130;28;20005;-62
2023/01/31 02:56:26;;;;;;;;;;;;;;;0.98;53.01;94177.84;4143011;28;19925;-62
2023/01/31 02:58:28;;;;;;;;;;;;;;;1.00;53.39;94180.31;4130783;28;19977;-62
2023/01/31 03:00:31;;;;;;;;;;;;;;;1.08;53.43;94178.00;4148182;28;19952;-63
2023/01/31 03:02:33;;;;;;;;;;;;;;;0.98;53.52;94193.31;4141869;28;20299;-62
2023/01/31 03:04:40;;;;;;;;;;;;;;;0.99;53.37;94188.97;4149236;28;20040;-62
2023/01/31 03:06:53;;;;;;;;;;;;;;;0.94;54.03;94204.81;4145609;28;19922;-58
2023/01/31 03:08:57;;;;;;;;;;;;;;;1.05;53.92;94196.28;4145642;28;19929;-61
2023/01/31 03:10:59;;;;;;;;;;;;;;;1.05;54.41;94206.59;4147414;28;19926;-62
2023/01/31 03:13:07;;;;;;;;;;;;;;;1.01;54.72;94215.47;4144507;28;19928;-63
2023/01/31 03:15:20;;;;;;;;;;;;;;;0.90;54.69;94218.03;4142540;28;20283;-61
2023/01/31 03:17:32;;;;;;;;;;;;;;;0.88;55.23;94222.47;4136827;28;20027;-62
2023/01/31 03:19:35;;;;;;;;;;;;;;;0.92;55.83;94223.91;4139879;28;19941;-60
2023/01/31 03:21:38;;;;;;;;;;;;;;;0.92;56.24;94211.81;4137157;28;20398;-62
2023/01/31 03:23:40;;;;;;;;;;;;;;;0.88;56.54;94214.75;4139591;28;19961;-62
2023/01/31 03:25:41;;;;;;;;;;;;;;;0.93;56.80;94218.66;4130699;28;20023;-60
2023/01/31 03:27:43;;;;;;;;;;;;;;;0.89;56.99;94219.81;4147442;28;20339;-60
2023/01/31 03:29:45;;;;;;;;;;;;;;;0.85;57.56;94236.44;4146763;28;19921;-62
2023/01/31 03:31:48;;;;;;;;;;;;;;;0.90;57.81;94231.75;4148983;28;19955;-62
2023/01/31 03:33:50;;;;;;;;;;;;;;;0.94;57.57;94229.78;4146961;28;19933;-62
2023/01/31 03:36:15;;;;;;;;;;;;;;;0.92;58.05;94242.78;4143366;28;19921;-62
2023/01/31 03:38:21;;;;;;;;;;;;;;;0.90;58.27;94242.06;4127217;28;20288;-61
2023/01/31 03:40:26;;;;;;;;;;;;;;;0.97;58.70;94250.19;4146363;28;19925;-61
2023/01/31 03:42:47;;;;;;;;;;;;;;;0.95;59.54;94254.66;4138890;28;19976;-62
2023/01/31 03:44:52;;;;;;;;;;;;;;;0.96;59.44;94261.44;4144321;28;20002;-62
2023/01/31 03:46:54;;;;;;;;;;;;;;;0.91;59.75;94274.66;4131439;28;19922;-61
2023/01/31 03:48:56;;;;;;;;;;;;;;;0.90;60.25;94267.03;4138633;28;19921;-60
2023/01/31 03:50:58;;;;;;;;;;;;;;;0.84;60.64;94260.59;4130859;28;20181;-59
2023/01/31 03:53:08;;;;;;;;;;;;;;;0.76;61.42;94263.69;4133925;28;19921;-61
2023/01/31 03:55:18;;;;;;;;;;;;;;;0.72;61.42;94267.44;4141193;28;19921;-59
2023/01/31 03:57:24;;;;;;;;;;;;;;;0.73;62.35;94268.25;4139503;28;19921;-61
2023/01/31 03:59:27;;;;;;;;;;;;;;;0.74;62.48;94270.72;4146629;28;19967;-60
2023/01/31 04:01:29;;;;;;;;;;;;;;;0.76;62.72;94268.84;4130456;28;20407;-61
2023/01/31 04:03:41;;;;;;;;;;;;;;;0.76;62.87;94273.19;4147155;28;19981;-60
2023/01/31 04:05:42;;;;;;;;;;;;;;;0.70;63.36;94277.03;4130812;28;19980;-60
2023/01/31 04:07:44;;;;;;;;;;;;;;;0.73;63.23;94263.94;4133706;28;19925;-60
2023/01/31 04:09:45;;;;;;;;;;;;;;;0.77;63.48;94267.09;4130996;28;19922;-60
2023/01/31 04:11:47;;;;;;;;;;;;;;;0.75;63.76;94287.00;4131232;28;19926;-61
2023/01/31 04:13:49;;;;;;;;;;;;;;;0.73;63.45;94276.84;4144196;28;19932;-61
2023/01/31 04:15:50;;;;;;;;;;;;;;;0.75;63.90;94285.28;4148275;28;20332;-62
2023/01/31 04:17:52;;;;;;;;;;;;;;;0.70;63.91;94271.88;4148263;28;19921;-62
2023/01/31 04:19:53;;;;;;;;;;;;;;;0.61;64.63;94275.94;4148251;28;19925;-59
2023/01/31 04:21:55;;;;;;;;;;;;;;;0.57;64.88;94281.41;4147085;28;19969;-60
2023/01/31 04:23:56;;;;;;;;;;;;;;;0.51;64.97;94279.28;4147858;28;20056;-61
2023/01/31 04:25:58;;;;;;;;;;;;;;;0.56;65.23;94290.06;4145137;28;19980;-62
2023/01/31 04:27:59;;;;;;;;;;;;;;;0.52;65.74;94289.47;4136435;28;20439;-63
2023/01/31 04:30:01;;;;;;;;;;;;;;;0.48;66.27;94292.38;4147815;28;20338;-62
2023/01/31 04:32:03;;;;;;;;;;;;;;;0.45;66.53;94308.88;4147583;28;19948;-61
2023/01/31 04:34:04;;;;;;;;;;;;;;;0.39;66.24;94297.25;4146721;28;19921;-62
2023/01/31 04:36:06;;;;;;;;;;;;;;;0.31;66.62;94291.00;4145758;28;19921;-62
2023/01/31 04:38:08;;;;;;;;;;;;;;;0.35;67.29;94292.44;4146421;28;19929;-62
2023/01/31 04:40:12;;;;;;;;;;;;;;;0.33;66.97;94295.09;4146182;28;19922;-62
2023/01/31 04:42:14;;;;;;;;;;;;;;;0.30;67.31;94297.06;4145343;28;19930;-61
2023/01/31 04:44:16;;;;;;;;;;;;;;;0.42;67.26;94301.38;4146223;28;19921;-63
2023/01/31 04:46:17;;;;;;;;;;;;;;;0.36;67.33;94305.19;4146081;28;19921;-62
2023/01/31 04:48:19;;;;;;;;;;;;;;;0.28;67.52;94304.06;4146669;28;20346;-61
2023/01/31 04:50:20;;;;;;;;;;;;;;;0.21;67.67;94298.53;4146688;28;19928;-61
2023/01/31 04:52:23;;;;;;;;;;;;;;;0.19;68.10;94311.53;4145679;28;19921;-60
2023/01/31 04:54:24;;;;;;;;;;;;;;;0.17;68.41;94317.69;4147283;28;19926;-63
2023/01/31 04:56:26;;;;;;;;;;;;;;;0.17;68.01;94310.81;4145893;28;20009;-60
2023/01/31 04:58:27;;;;;;;;;;;;;;;0.23;68.14;94304.41;4133212;28;19925;-61
2023/01/31 05:00:29;;;;;;;;;;;;;;;0.25;68.44;94312.03;4146705;28;19921;-64
2023/01/31 05:02:31;;;;;;;;;;;;;;;0.28;68.00;94301.50;4146193;28;19922;-64
2023/01/31 05:04:32;;;;;;;;;;;;;;;0.36;68.16;94304.38;4145406;28;19921;-64
2023/01/31 05:06:34;;;;;;;;;;;;;;;0.36;67.67;94309.53;4147473;28;19921;-62
2023/01/31 05:08:35;;;;;;;;;;;;;;;0.29;67.60;94313.47;4146116;28;19921;-64
2023/01/31 05:10:37;;;;;;;;;;;;;;;0.36;67.75;94310.34;4146661;28;19922;-61
2023/01/31 05:12:38;;;;;;;;;;;;;;;0.42;68.08;94310.84;4144459;28;19925;-64
2023/01/31 05:14:40;;;;;;;;;;;;;;;0.48;67.41;94313.00;4146070;28;19925;-64
2023/01/31 05:16:46;;;;;;;;;;;;;;;0.48;67.26;94323.31;4146171;28;19952;-62
2023/01/31 05:18:49;;;;;;;;;;;;;;;0.45;67.86;94316.59;4143333;28;19936;-61
2023/01/31 05:20:51;;;;;;;;;;;;;;;0.45;67.83;94321.75;4137358;28;19929;-62
2023/01/31 05:22:52;;;;;;;;;;;;;;;0.46;67.63;94322.59;4146472;28;19928;-61
2023/01/31 05:24:54;;;;;;;;;;;;;;;0.43;67.92;94326.22;4146817;28;19921;-63
2023/01/31 05:27:00;;;;;;;;;;;;;;;0.47;67.55;94319.06;4146706;28;19921;-65
2023/01/31 05:29:06;;;;;;;;;;;;;;;0.50;67.75;94321.47;4145228;28;20004;-61
2023/01/31 05:31:07;;;;;;;;;;;;;;;0.50;67.08;94322.28;4146603;28;19921;-65
2023/01/31 05:33:10;;;;;;;;;;;;;;;0.53;67.14;94334.13;4145893;28;19956;-64
2023/01/31 05:35:11;;;;;;;;;;;;;;;0.48;67.17;94328.47;4146323;28;19976;-63
2023/01/31 05:37:13;;;;;;;;;;;;;;;0.50;67.44;94324.84;4144854;28;19976;-63
2023/01/31 05:39:14;;;;;;;;;;;;;;;0.53;67.37;94322.03;4147018;28;19929;-63
2023/01/31 05:41:16;;;;;;;;;;;;;;;0.57;66.70;94320.91;4147077;28;19925;-61
2023/01/31 05:43:17;;;;;;;;;;;;;;;0.62;67.04;94323.16;4145049;28;19921;-63
2023/01/31 05:45:19;;;;;;;;;;;;;;;0.57;66.51;94330.41;4146354;28;19929;-62
2023/01/31 05:47:23;;;;;;;;;;;;;;;0.59;66.84;94331.94;4147044;28;19928;-63
2023/01/31 05:49:25;;;;;;;;;;;;;;;0.58;66.86;94335.44;4147002;28;19921;-63
2023/01/31 05:51:26;;;;;;;;;;;;;;;0.52;67.27;94335.88;4146613;28;19976;-62
2023/01/31 05:53:28;;;;;;;;;;;;;;;0.53;67.03;94347.81;4141276;28;19921;-62
2023/01/31 05:55:29;;;;;;;;;;;;;;;0.55;66.98;94340.81;4130591;28;19929;-60
2023/01/31 05:57:31;;;;;;;;;;;;;;;0.55;66.93;94345.97;4141526;28;20713;-65
2023/01/31 05:59:33;;;;;;;;;;;;;;;0.65;67.06;94347.91;4130492;28;19929;-62
2023/01/31 06:01:35;;;;;;;;;;;;;;;0.64;66.94;94347.06;4130617;28;20012;-64
2023/01/31 06:03:36;;;;;;;;;;;;;;;0.70;67.04;94344.06;4137604;28;20477;-62
2023/01/31 06:05:39;;;;;;;;;;;;;;;0.69;67.24;94351.91;4130479;28;19965;-63
2023/01/31 06:07:40;;;;;;;;;;;;;;;0.70;67.18;94344.06;4134290;28;19925;-64
2023/01/31 06:09:42;;;;;;;;;;;;;;;0.74;66.87;94363.53;4139921;28;19921;-65
2023/01/31 06:11:44;;;;;;;;;;;;;;;0.76;67.29;94353.94;4129451;28;20069;-65
2023/01/31 06:13:45;;;;;;;;;;;;;;;0.73;66.65;94356.75;4142323;28;20358;-66
2023/01/31 06:15:48;;;;;;;;;;;;;;;0.76;66.59;94353.94;4143372;28;19922;-64
2023/01/31 06:17:49;;;;;;;;;;;;;;;0.86;66.75;94342.97;4137410;28;20331;-65
2023/01/31 06:19:51;;;;;;;;;;;;;;;0.88;66.67;94352.25;4113174;28;19922;-63
2023/01/31 06:21:52;;;;;;;;;;;;;;;0.86;66.67;94348.13;4144654;28;19921;-62
2023/01/31 06:23:54;;;;;;;;;;;;;;;0.86;66.90;94354.13;4146641;28;19925;-64
2023/01/31 06:25:55;;;;;;;;;;;;;;;0.71;67.31;94355.19;4146331;28;20092;-65
2023/01/31 06:27:57;;;;;;;;;;;;;;;0.86;67.42;94356.72;4144167;28;19980;-64
2023/01/31 06:29:59;;;;;;;;;;;;;;;0.94;67.50;94358.72;4146134;28;20320;-64
2023/01/31 06:32:01;;;;;;;;;;;;;;;0.85;67.30;94355.06;4146197;28;20528;-65
2023/01/31 06:34:02;;;;;;;;;;;;;;;0.99;67.82;94348.91;4145443;28;19930;-65
2023/01/31 06:36:04;;;;;;;;;;;;;;;0.95;66.96;94347.50;4146142;28;19925;-65
2023/01/31 06:38:06;;;;;;;;;;;;;;;0.93;67.72;94350.19;4146267;28;19921;-66
2023/01/31 06:40:07;;;;;;;;;;;;;;;1.01;67.56;94352.19;4144887;28;19925;-65
2023/01/31 06:42:09;;;;;;;;;;;;;;;0.98;66.91;94350.66;4129312;28;19925;-67
2023/01/31 06:44:10;;;;;;;;;;;;;;;1.05;67.21;94351.03;4138002;28;19975;-65
2023/01/31 06:46:12;;;;;;;;;;;;;;;1.15;66.73;94358.97;4146378;28;19921;-65
2023/01/31 06:48:14;;;;;;;;;;;;;;;1.06;66.78;94360.44;4146112;28;19925;-66
2023/01/31 06:50:16;;;;;;;;;;;;;;;1.10;67.29;94355.88;4146323;28;20363;-64
2023/01/31 06:52:17;;;;;;;;;;;;;;;0.96;67.39;94347.38;4145648;28;19921;-64
2023/01/31 06:54:18;;;;;;;;;;;;;;;1.04;67.38;94359.72;4146380;28;20405;-65
2023/01/31 06:56:20;;;;;;;;;;;;;;;0.98;67.54;94370.47;4144530;28;20016;-65
2023/01/31 06:58:22;;;;;;;;;;;;;;;1.10;67.13;94354.13;4145469;28;19921;-66
2023/01/31 07:00:24;;;;;;;;;;;;;;;1.19;66.52;94355.22;4146372;28;19933;-65
2023/01/31 07:02:26;;;;;;;;;;;;;;;1.21;66.07;94354.19;4149358;28;20000;-65
2023/01/31 07:04:27;;;;;;;;;;;;;;;1.23;66.15;94349.72;4149749;28;19964;-65
2023/01/31 07:06:29;;;;;;;;;;;;;;;1.24;66.13;94363.44;4148131;28;19951;-64
2023/01/31 07:08:30;;;;;;;;;;;;;;;1.29;66.21;94360.53;4149405;28;20340;-66
2023/01/31 07:10:36;;;;;;;;;;;;;;;1.30;66.07;94357.84;4148604;28;19928;-64
2023/01/31 07:12:38;;;;;;;;;;;;;;;1.27;65.80;94367.56;4135999;28;20467;-66
2023/01/31 07:14:39;;;;;;;;;;;;;;;1.27;66.25;94370.13;4148615;28;19971;-66
2023/01/31 07:16:41;;;;;;;;;;;;;;;1.30;66.14;94370.75;4148810;28;19933;-65
2023/01/31 07:18:42;;;;;;;;;;;;;;;1.29;66.35;94371.69;4149186;28;20351;-65
2023/01/31 07:20:44;;;;;;;;;;;;;;;1.33;66.17;94367.94;4149201;28;19975;-64
2023/01/31 07:22:52;;;;;;;;;;;;;;;1.38;66.03;94376.19;4148654;28;20315;-62
2023/01/31 07:24:56;;;;;;;;;;;;;;;1.40;65.51;94378.66;4142468;28;19985;-65
2023/01/31 07:26:59;;;;;;;;;;;;;;;1.45;65.59;94368.81;4142563;28;19964;-65
2023/01/31 07:29:00;;;;;;;;;;;;;;;1.40;65.82;94376.91;4147531;28;19998;-64
2023/01/31 07:31:03;;;;;;;;;;;;;;;1.45;65.89;94373.16;4134833;28;19925;-64
2023/01/31 07:33:04;;;;;;;;;;;;;;;1.49;66.07;94372.00;4148296;28;20359;-64
2023/01/31 07:35:06;;;;;;;;;;;;;;;1.47;66.26;94382.44;4131275;28;19976;-65
2023/01/31 07:37:08;;;;;;;;;;;;;;;1.41;66.62;94364.81;4129423;28;19960;-65
2023/01/31 07:39:09;;;;;;;;;;;;;;;1.36;66.96;94372.88;4148675;28;19991;-64
2023/01/31 07:41:11;;;;;;;;;;;;;;;1.43;66.86;94373.25;4148931;28;20334;-65
2023/01/31 07:43:12;;;;;;;;;;;;;;;1.48;66.58;94376.31;4146612;28;19960;-64
2023/01/31 07:45:14;;;;;;;;;;;;;;;1.43;66.53;94381.00;4136599;28;19929;-63
2023/01/31 07:47:34;;;;;;;;;;;;;;;1.38;67.11;94391.66;4149455;28;19927;-65
2023/01/31 07:49:35;;;;;;;;;;;;;;;1.35;67.19;94389.28;4148745;28;20004;-63
2023/01/31 07:51:37;;;;;;;;;;;;;;;1.27;67.56;94398.53;4132592;28;20500;-64
2023/01/31 07:53:42;;;;;;;;;;;;;;;1.30;67.60;94393.16;4138647;28;19960;-63
2023/01/31 07:55:46;;;;;;;;;;;;;;;1.32;67.27;94384.38;4138906;28;19929;-65
2023/01/31 07:57:48;;;;;;;;;;;;;;;1.34;67.66;94392.81;4132361;28;19925;-67
2023/01/31 07:59:49;;;;;;;;;;;;;;;1.36;67.46;94375.47;4144414;28;19922;-65
2023/01/31 08:04:12;;;;;;;;;;;;;;;1.42;67.60;94400.03;4136072;28;19921;-63
2023/01/31 08:06:22;;;;;;;;;;;;;;;1.41;67.90;94398.38;4148044;28;20375;-64
2023/01/31 08:08:23;;;;;;;;;;;;;;;1.42;68.06;94387.13;4140081;28;19921;-65
2023/01/31 08:10:25;;;;;;;;;;;;;;;1.48;68.00;94375.50;4144748;28;19926;-64
2023/01/31 08:12:26;;;;;;;;;;;;;;;1.68;67.42;94374.03;4144754;28;21637;-65
2023/01/31 08:14:28;;;;;;;;;;;;;;;1.77;67.35;94379.34;4132447;28;19922;-63
2023/01/31 08:16:30;;;;;;;;;;;;;;;1.67;66.57;94380.97;4141679;28;19967;-63
2023/01/31 08:18:32;;;;;;;;;;;;;;;1.71;66.92;94382.38;4147417;28;19921;-65
2023/01/31 08:20:36;;;;;;;;;;;;;;;1.74;66.22;94377.00;4135364;28;19948;-64
2023/01/31 08:22:38;;;;;;;;;;;;;;;1.87;66.25;94384.66;4141340;28;20427;-63
2023/01/31 08:24:39;;;;;;;;;;;;;;;2.07;65.81;94378.00;4141710;28;19922;-66
2023/01/31 08:26:41;;;;;;;;;;;;;;;2.17;64.96;94370.38;4141727;28;19922;-65
2023/01/31 08:28:43;;;;;;;;;;;;;;;2.38;64.84;94373.91;4140890;28;19925;-65
2023/01/31 08:30:44;;;;;;;;;;;;;;;2.44;64.22;94360.50;4143201;28;19925;-64
2023/01/31 08:32:59;;;;;;;;;;;;;;;2.49;64.08;94359.34;4140105;28;19922;-64
2023/01/31 08:35:00;;;;;;;;;;;;;;;2.75;63.72;94363.28;4144526;28;19926;-66
2023/01/31 08:37:02;;;;;;;;;;;;;;;2.80;62.87;94361.19;4144905;28;20383;-63
2023/01/31 08:39:04;;;;;;;;;;;;;;;2.96;62.50;94367.75;4141742;28;19928;-64
2023/01/31 08:41:05;;;;;;;;;;;;;;;2.87;62.47;94364.94;4147861;28;19925;-65
2023/01/31 08:43:07;;;;;;;;;;;;;;;2.61;63.14;94369.56;4146521;28;20363;-66
2023/01/31 08:45:08;;;;;;;;;;;;;;;2.50;63.62;94364.41;4134276;28;20016;-64
2023/01/31 08:47:10;;;;;;;;;;;;;;;2.51;63.92;94371.19;4141765;28;19922;-63
2023/01/31 08:49:11;;;;;;;;;;;;;;;2.63;63.90;94372.84;4132054;28;19929;-64
2023/01/31 08:51:13;;;;;;;;;;;;;;;2.76;63.50;94370.13;4132233;28;19976;-65
2023/01/31 08:53:15;;;;;;;;;;;;;;;2.89;63.44;94371.75;4131809;28;20307;-64
2023/01/31 08:55:16;;;;;;;;;;;;;;;3.01;62.91;94373.38;4138687;28;20017;-65
2023/01/31 08:57:19;;;;;;;;;;;;;;;3.07;62.64;94375.47;4146791;28;19953;-66
2023/01/31 08:59:21;;;;;;;;;;;;;;;2.89;62.77;94372.56;4145756;28;19921;-64
2023/01/31 09:01:22;;;;;;;;;;;;;;;2.99;62.37;94351.97;4147564;28;19925;-66
2023/01/31 09:03:24;;;;;;;;;;;;;;;3.00;62.22;94361.38;4146936;28;20007;-64
2023/01/31 09:05:26;;;;;;;;;;;;;;;2.91;62.28;94367.28;4147241;28;20203;-64
2023/01/31 09:07:28;;;;;;;;;;;;;;;2.87;62.28;94374.47;4147000;28;20305;-62
2023/01/31 09:09:30;;;;;;;;;;;;;;;2.93;62.28;94368.81;4146032;28;19921;-65
2023/01/31 09:11:32;;;;;;;;;;;;;;;2.92;62.40;94361.16;4147452;28;19979;-65
2023/01/31 09:13:34;;;;;;;;;;;;;;;3.20;61.80;94363.19;4145847;28;19933;-65
2023/01/31 09:15:35;;;;;;;;;;;;;;;3.12;61.01;94391.47;4146802;28;20308;-64
2023/01/31 09:17:37;;;;;;;;;;;;;;;3.07;61.45;94378.06;4146714;28;19921;-63
2023/01/31 09:19:39;;;;;;;;;;;;;;;3.18;60.92;94375.44;4137658;28;20376;-63
2023/01/31 09:21:41;;;;;;;;;;;;;;;3.10;60.87;94370.06;4144197;28;19936;-65
2023/01/31 09:23:42;;;;;;;;;;;;;;;3.01;61.69;94374.22;4137596;28;20343;-64
2023/01/31 09:25:44;;;;;;;;;;;;;;;3.20;60.89;94368.38;4143708;28;20016;-64
2023/01/31 09:27:49;;;;;;;;;;;;;;;3.12;60.82;94378.53;4128875;28;20012;-65
2023/01/31 09:29:50;;;;;;;;;;;;;;;3.17;60.95;94353.09;4145774;28;20019;-66
2023/01/31 09:31:52;;;;;;;;;;;;;;;3.00;61.79;94363.97;4147124;28;19952;-65
2023/01/31 09:33:53;;;;;;;;;;;;;;;3.35;61.31;94360.34;4147339;28;19921;-64
2023/01/31 09:35:56;;;;;;;;;;;;;;;3.60;60.38;94349.63;4143139;28;19969;-66
2023/01/31 09:37:57;;;;;;;;;;;;;;;3.76;59.32;94348.38;4130899;28;19925;-63
2023/01/31 09:39:59;;;;;;;;;;;;;;;3.75;59.23;94383.81;4143675;28;19921;-66
2023/01/31 09:42:06;;;;;;;;;;;;;;;3.61;60.31;94356.44;4146830;28;19922;-66
2023/01/31 09:44:28;;;;;;;;;;;;;;;3.92;59.30;94338.38;4145152;28;19925;-64
2023/01/31 09:46:37;;;;;;;;;;;;;;;4.18;59.16;94340.56;4132837;28;20495;-65
2023/01/31 09:48:38;;;;;;;;;;;;;;;3.85;58.51;94340.66;4129661;28;20391;-63
2023/01/31 09:50:41;;;;;;;;;;;;;;;3.73;58.94;94333.09;4139696;28;19928;-66
2023/01/31 09:52:42;;;;;;;;;;;;;;;3.75;59.36;94336.38;4145462;28;19995;-65
2023/01/31 09:54:44;;;;;;;;;;;;;;;3.83;59.42;94321.00;4133439;28;19925;-65
2023/01/31 09:57:12;;;;;;;;;;;;;;;3.81;59.24;94328.09;4146429;28;19925;-66
2023/01/31 09:59:17;;;;;;;;;;;;;;;3.79;58.87;94325.63;4145072;28;19968;-65
2023/01/31 10:01:37;;;;;;;;;;;;;;;3.90;59.09;94329.91;4134253;28;19921;-65
2023/01/31 10:03:41;;;;;;;;;;;;;;;4.15;59.14;94333.03;4145801;28;19925;-64
2023/01/31 10:05:50;;;;;;;;;;;;;;;4.10;58.11;94328.25;4145527;28;19988;-63
2023/01/31 10:08:04;;;;;;;;;;;;;;;4.06;58.86;94334.63;4129462;28;19921;-65
2023/01/31 10:10:12;;;;;;;;;;;;;;;3.99;58.77;94317.97;4136233;28;19926;-65
2023/01/31 10:12:21;;;;;;;;;;;;;;;3.88;59.78;94324.84;4130365;28;20482;-66
2023/01/31 10:14:26;;;;;;;;;;;;;;;4.05;58.60;94313.09;4145357;28;19944;-66
2023/01/31 10:16:40;;;;;;;;;;;;;;;4.15;58.49;94301.94;4129406;28;20012;-63
2023/01/31 10:18:42;;;;;;;;;;;;;;;4.25;57.28;94306.22;4146859;28;20377;-64
2023/01/31 10:20:46;;;;;;;;;;;;;;;4.36;57.48;94315.66;4145169;28;20025;-65
2023/01/31 10:22:51;;;;;;;;;;;;;;;4.12;56.88;94303.00;4139480;28;19928;-64
2023/01/31 10:24:57;;;;;;;;;;;;;;;3.59;58.07;94311.75;4140209;28;19921;-63
2023/01/31 10:27:07;;;;;;;;;;;;;;;3.59;58.71;94318.66;4135352;28;19968;-65
2023/01/31 10:29:13;;;;;;;;;;;;;;;3.35;58.83;94300.78;4137179;28;20383;-67
2023/01/31 10:31:24;;;;;;;;;;;;;;;3.25;59.32;94300.72;4139968;28;19980;-66
2023/01/31 10:33:47;;;;;;;;;;;;;;;3.21;59.66;94302.72;4141708;28;19926;-66
2023/01/31 10:35:49;;;;;;;;;;;;;;;2.72;60.03;94321.34;4124948;28;19921;-64
2023/01/31 10:37:52;;;;;;;;;;;;;;;2.17;61.51;94304.03;4147958;28;20532;-65
2023/01/31 10:40:12;;;;;;;;;;;;;;;2.29;62.95;94316.94;4132305;28;19921;-66
2023/01/31 10:42:17;;;;;;;;;;;;;;;2.43;62.28;94309.75;4137786;28;19933;-68
2023/01/31 10:44:21;;;;;;;;;;;;;;;2.56;62.50;94301.03;4148269;28;19925;-66
2023/01/31 10:46:23;;;;;;;;;;;;;;;2.59;62.47;94295.63;4136777;28;19921;-64
2023/01/31 10:48:26;;;;;;;;;;;;;;;2.80;61.90;94293.94;4137058;28;19929;-63
2023/01/31 10:50:30;;;;;;;;;;;;;;;2.99;61.41;94297.63;4148609;28;20395;-64
2023/01/31 10:52:50;;;;;;;;;;;;;;;3.05;61.36;94302.31;4137277;28;19961;-64
2023/01/31 10:55:10;;;;;;;;;;;;;;;2.99;61.06;94307.97;4136915;28;19929;-64
2023/01/31 10:57:12;;;;;;;;;;;;;;;2.87;61.70;94310.59;4139021;28;20316;-65